Latest Coastal Weather Observations for Devonport Airport

IDT60701

Issued at 7:32 pm EST Wednesday 6 May 2026 (issued every 10 minutes, with the page automatically refreshed every 10 minutes)

About coastal observations | Map of coastal stations | Coastal observations for TAS | Marine services | Other Formats
Station Details ID: 091126 Name: DEVONPORT AIRPORT Lat: -41.17 Lon: 146.43 Height: 8.0 m
Data from the previous 72 hours. | See also: Recent months at Devonport Airport
Date/Time
EST
Wind Sea
Height
m
Swell Vis
km
Cloud Weather Temp
°C
Press
MSL
hPa
Rain since
9am
mm
Dir  Spd
kts
Gust
kts
Height
m
Period
s
Dir
06/07:30pm WNW 16 20 - - - - 10 Cloudy - 10.6 1009.1 3.8
06/07:00pm W 13 18 - - - - 10 Partly cloudy - 10.4 1008.9 3.4
06/06:30pm W 16 20 - - - - 10 Partly cloudy - 11.2 1008.5 3.0
06/06:00pm WSW 13 16 - - - - 10 Cloudy - 12.5 1007.8 3.0
06/05:30pm W 17 23 - - - - 10 Mostly clear - 13.3 1007.0 3.0
06/05:00pm NW 19 23 - - - - 10 Mostly clear - 14.0 1006.9 3.0
06/04:45pm NW 23 31 - - - - 6 Partly cloudy - 13.5 1007.2 3.0
06/04:30pm NW 24 29 - - - - 10 Partly cloudy - 15.0 1007.5 2.8
06/04:00pm NW 25 31 - - - - 10 Partly cloudy - 15.5 1008.1 2.8
06/03:30pm NW 23 30 - - - - 10 Partly cloudy - 15.9 1008.5 2.8
06/03:00pm NW 24 30 - - - - 10 - - 15.9 1008.8 2.8
06/02:30pm NW 26 33 - - - - 10 Mostly clear - 16.1 1009.2 2.8
06/02:00pm WNW 23 31 - - - - 10 Mostly clear - 15.9 1009.8 2.8
06/01:30pm WNW 18 23 - - - - 10 Mostly clear - 15.3 1010.4 2.8
06/01:23pm WNW 17 21 - - - - 10 Mostly clear - 15.2 1010.6 2.8
06/01:03pm NW 22 30 - - - - 5 Mostly clear - 14.1 1011.0 2.4
06/01:00pm NW 20 26 - - - - 10 Mostly clear - 16.0 1010.8 0.8
06/12:30pm WNW 22 27 - - - - 10 Mostly clear - 16.1 1011.3 0.8
06/12:22pm NW 21 27 - - - - 10 Mostly clear - 16.1 1011.4 0.8
06/12:00pm NW 18 24 - - - - 10 Cloudy Recent precip. 15.9 1012.1 0.8
06/11:57am NW 16 21 - - - - 10 Partly cloudy - 15.6 1012.1 0.8
06/11:35am NW 20 26 - - - - 5 Partly cloudy - 14.6 1012.6 0.8
06/11:30am WNW 19 25 - - - - 10 Partly cloudy - 14.9 1012.8 0.8
06/11:27am WNW 19 28 - - - - 10 Partly cloudy - 14.8 1012.9 0.8
06/11:18am WNW 19 25 - - - - 7 Partly cloudy - 15.0 1013.1 0.8
06/11:12am WNW 19 25 - - - - 6 Mostly clear - 14.8 1013.2 0.8
06/11:00am WNW 20 25 - - - - 10 Mostly clear - 15.0 1013.4 0.8
06/10:30am WNW 19 25 - - - - 10 Mostly clear - 15.8 1013.7 0.8
06/10:00am WNW 22 27 - - - - 10 Mostly clear - 15.0 1013.9 0.8
06/09:59am WNW 22 27 - - - - 10 Mostly clear - 14.9 1013.9 0.8
06/09:55am WNW 21 26 - - - - 10 Mostly clear - 14.7 1014.0 0.8
06/09:37am WNW 17 27 - - - - 6 Mostly clear - 13.9 1014.5 0.4
06/09:32am WNW 16 21 - - - - 10 Partly cloudy - 15.3 1014.4 0.0
06/09:30am WNW 16 21 - - - - 10 Partly cloudy - 15.4 1014.4 0.0
06/09:00am WNW 17 23 - - - - 10 Partly cloudy - 15.0 1014.9 0.2
06/08:30am WNW 17 21 - - - - 10 Mostly clear - 14.5 1015.2 0.2
06/08:10am WNW 18 23 - - - - 10 Mostly clear - 14.2 1015.3 0.2
06/08:00am WNW 20 26 - - - - 6 Mostly clear - 13.8 1015.3 0.2
06/07:51am WNW 23 28 - - - - 5 Mostly clear - 13.8 1015.4 0.0
06/07:42am WNW 22 26 - - - - 10 Partly cloudy - 14.2 1015.2 0.0
06/07:30am W 15 23 - - - - 10 Partly cloudy - 14.4 1015.3 0.0
06/07:25am W 12 18 - - - - 10 Partly cloudy - 14.2 1015.3 0.0
06/07:00am WNW 16 21 - - - - 10 Partly cloudy - 14.6 1015.3 0.0
06/06:30am WNW 18 22 - - - - 10 Partly cloudy - 14.5 1015.4 0.0
06/06:00am WNW 17 21 - - - - 10 Mostly cloudy - 14.3 1015.6 0.0
06/05:42am WNW 19 24 - - - - 10 Mostly clear - 14.2 1015.7 0.0
06/05:32am WNW 18 24 - - - - 10 Partly cloudy - 14.2 1015.8 0.0
06/05:30am WNW 19 24 - - - - 10 Partly cloudy - 14.2 1015.8 0.0
06/05:28am WNW 19 24 - - - - 10 Partly cloudy - 14.3 1015.8 0.0
06/05:00am WNW 18 22 - - - - 10 Partly cloudy - 14.5 1015.9 0.0
06/04:30am WNW 16 21 - - - - 10 Partly cloudy - 14.3 1016.1 0.0
06/04:00am WNW 17 22 - - - - 10 Cloudy - 14.3 1016.0 0.0
06/03:30am WNW 17 21 - - - - 10 Partly cloudy - 14.2 1016.2 0.0
06/03:28am WNW 17 21 - - - - 10 Partly cloudy - 14.3 1016.2 0.0
06/03:03am WNW 18 23 - - - - 10 Mostly clear - 14.0 1016.5 0.0
06/03:00am WNW 18 21 - - - - 10 Partly cloudy - 13.9 1016.5 0.0
06/02:30am WNW 19 25 - - - - 10 Partly cloudy - 14.3 1016.8 0.0
06/02:27am WNW 19 24 - - - - 10 Mostly clear - 14.5 1016.9 0.0
06/02:09am WNW 19 25 - - - - 10 Mostly clear - 14.5 1017.0 0.0
06/02:00am WNW 18 22 - - - - 10 Partly cloudy - 14.2 1017.2 0.0
06/01:30am WNW 11 16 - - - - 10 Partly cloudy - 13.8 1017.6 0.0
06/01:26am W 11 15 - - - - 10 Partly cloudy - 13.7 1017.6 0.0
06/01:00am W 12 15 - - - - 10 Cloudy - 13.5 1017.8 0.0
06/12:30am WNW 11 14 - - - - 10 Partly cloudy - 13.2 1017.9 0.0
06/12:00am WNW 7 13 - - - - 10 Partly cloudy - 12.8 1018.0 0.0
 
Date/Time
EST
Wind Sea
Height
m
Swell Vis
km
Cloud Weather Temp
°C
Press
MSL
hPa
Rain since
9am
mm
Dir  Spd
kts
Gust
kts
Height
m
Period
s
Dir
05/11:30pm W 6 9 - - - - 10 Mostly clear - 12.3 1018.3 0.0
05/11:00pm W 9 11 - - - - 10 Partly cloudy - 12.7 1018.6 0.0
05/10:30pm W 11 15 - - - - 10 Cloudy - 13.0 1018.7 0.0
05/10:00pm W 7 9 - - - - 10 Partly cloudy - 11.9 1018.9 0.0
05/09:30pm W 8 10 - - - - 10 Cloudy - 12.1 1018.9 0.0
05/09:00pm W 10 13 - - - - 10 Mostly cloudy - 12.4 1018.8 0.0
05/08:30pm W 12 16 - - - - 10 Partly cloudy - 13.0 1018.8 0.0
05/08:00pm W 13 16 - - - - 10 - - 12.9 1018.6 0.0
05/07:30pm W 15 17 - - - - 10 - - 13.0 1018.5 0.0
05/07:00pm WNW 15 18 - - - - 10 - - 13.5 1018.3 0.0
05/06:30pm W 11 13 - - - - 10 - - 12.8 1018.0 0.0
05/06:00pm WSW 9 11 - - - - 10 - - 12.1 1017.4 0.0
05/05:30pm W 12 15 - - - - 10 - - 13.3 1017.0 0.0
05/05:00pm W 10 12 - - - - 10 - - 14.1 1016.7 0.0
05/04:30pm W 13 17 - - - - 10 - - 15.2 1016.1 0.0
05/04:00pm WSW 14 19 - - - - 10 - - 16.1 1015.5 0.0
05/03:30pm WSW 16 20 - - - - 10 - - 16.9 1015.0 0.0
05/03:00pm W 16 21 - - - - 10 - - 17.6 1014.6 0.0
05/02:30pm W 15 19 - - - - 10 - - 18.5 1014.0 0.0
05/02:00pm WNW 15 18 - - - - 10 Mostly clear - 18.6 1013.7 0.0
05/01:30pm NW 15 19 - - - - 10 Partly cloudy - 17.9 1013.8 0.0
05/01:00pm WNW 15 19 - - - - 10 Partly cloudy - 18.7 1013.7 0.0
05/12:30pm W 13 15 - - - - 10 Partly cloudy - 18.2 1013.9 0.0
05/12:00pm WNW 12 15 - - - - 10 Mostly clear - 17.6 1013.8 0.0
05/11:30am NW 9 12 - - - - 10 - - 17.2 1014.0 0.0
05/11:00am WNW 10 12 - - - - 10 - - 17.0 1013.7 0.0
05/10:30am WNW 13 15 - - - - 10 - - 16.1 1013.3 0.0
05/10:00am W 13 15 - - - - 10 - - 15.9 1013.1 0.0
05/09:30am W 9 11 - - - - 10 - - 15.3 1012.9 0.0
05/09:00am W 8 10 - - - - 10 - - 14.2 1012.5 3.0
05/08:30am SW 5 7 - - - - 10 - - 12.4 1012.5 3.0
05/08:00am SW 4 6 - - - - 10 - - 10.4 1011.8 3.0
05/07:30am SW 4 5 - - - - 10 - - 9.3 1011.1 3.0
05/07:00am W 8 10 - - - - 10 Mostly clear - 9.4 1010.6 3.0
05/06:30am WSW 7 9 - - - - 10 Mostly clear - 9.9 1010.0 3.0
05/06:00am WSW 5 7 - - - - 10 - - 9.0 1009.4 3.0
05/05:30am SSW 6 9 - - - - 10 - - 9.9 1009.0 3.0
05/05:00am SSE 5 8 - - - - 10 - - 10.5 1008.6 3.0
05/04:30am S 8 10 - - - - 10 - - 11.4 1008.1 3.0
05/04:00am S 7 9 - - - - 10 - - 11.4 1007.7 3.0
05/03:30am SSE 7 8 - - - - 10 Mostly clear - 11.6 1007.3 3.0
05/03:00am SSE 8 10 - - - - 10 Mostly cloudy Rain 12.3 1007.0 3.0
05/02:30am SSE 9 11 - - - - 10 Mostly clear - 12.9 1007.1 2.8
05/02:11am S 9 13 - - - - 10 Partly cloudy - 13.4 1007.2 2.4
05/02:00am S 7 9 - - - - 9 Partly cloudy - 13.5 1007.3 2.4
05/01:30am SSE 5 8 - - - - 10 Partly cloudy - 13.9 1007.2 1.8
05/01:18am N 6 8 - - - - 10 Partly cloudy - 14.5 1007.3 1.8
05/01:00am N 11 14 - - - - 10 Partly cloudy - 14.8 1007.3 1.6
05/12:53am N 13 17 - - - - 10 Partly cloudy - 14.9 1007.3 1.4
05/12:30am N 12 16 - - - - 10 Partly cloudy - 15.2 1007.3 1.0
05/12:16am N 14 18 - - - - 10 Partly cloudy - 15.2 1007.3 1.0
05/12:00am N 16 19 - - - - 10 Cloudy Showers 15.2 1007.5 1.0
 
Date/Time
EST
Wind Sea
Height
m
Swell Vis
km
Cloud Weather Temp
°C
Press
MSL
hPa
Rain since
9am
mm
Dir  Spd
kts
Gust
kts
Height
m
Period
s
Dir
04/11:30pm N 15 24 - - - - 10 Partly cloudy - 15.4 1007.4 0.8
04/11:00pm N 14 17 - - - - 10 Mostly clear - 15.4 1008.0 0.8
04/10:30pm N 15 20 - - - - 10 Partly cloudy - 15.3 1008.3 0.8
04/10:00pm NNW 12 15 - - - - 10 Mostly clear - 14.6 1008.6 0.8
04/09:57pm NNW 11 15 - - - - 10 Mostly clear - 14.4 1008.6 0.8
04/09:38pm NNW 18 25 - - - - 6 Mostly clear - 13.9 1008.7 0.2
04/09:33pm N 18 25 - - - - 10 Mostly clear - 14.1 1008.7 0.0
04/09:30pm NNE 16 22 - - - - 10 Mostly clear - 15.2 1008.5 0.0
04/09:08pm N 16 27 - - - - 10 Mostly clear - 16.4 1007.9 0.0
04/09:00pm N 16 21 - - - - 10 Cloudy Recent precip. 16.4 1007.9 0.0
04/08:30pm N 15 19 - - - - 10 Partly cloudy - 16.4 1008.1 0.0
04/08:00pm N 15 19 - - - - 10 Partly cloudy - 16.4 1008.3 0.0
04/07:30pm N 17 21 - - - - 10 Partly cloudy - 16.5 1008.3 0.0
04/07:00pm N 18 22 - - - - 10 Partly cloudy - 16.4 1008.4 0.0
04/06:30pm NNW 17 22 - - - - 10 Partly cloudy - 16.2 1008.3 0.0
04/06:00pm NNW 19 24 - - - - 10 Cloudy Thunderstorm 16.2 1008.0 0.0
04/05:30pm NW 17 26 - - - - 10 Partly cloudy - 15.2 1008.0 0.0
04/05:00pm N 15 20 - - - - 10 Mostly clear - 16.4 1007.9 0.0
04/04:30pm N 16 19 - - - - 10 Mostly clear - 16.5 1008.2 0.0
04/04:00pm NNW 17 22 - - - - 10 Mostly clear - 16.7 1008.3 0.0
04/03:30pm NNW 18 22 - - - - 10 Mostly clear - 16.7 1008.3 0.0
04/03:00pm N 18 24 - - - - 10 Cloudy - 16.7 1008.4 0.0
04/02:30pm N 18 22 - - - - 10 Mostly clear - 17.5 1008.3 0.0
04/02:00pm N 16 20 - - - - 10 Partly cloudy - 17.7 1008.4 0.0
04/01:30pm N 15 20 - - - - 10 Partly cloudy - 16.5 1008.7 0.0
04/01:00pm N 16 20 - - - - 10 Cloudy - 16.4 1009.1 0.0
04/12:30pm N 16 19 - - - - 10 Partly cloudy - 17.2 1009.3 0.0
04/12:00pm N 16 20 - - - - 10 Cloudy Rain 17.4 1009.8 0.0
04/11:30am N 13 17 - - - - 10 Mostly clear - 17.7 1010.2 0.0
04/11:00am N 14 18 - - - - 10 Mostly clear - 17.2 1010.5 0.0
04/10:30am N 15 19 - - - - 10 Mostly clear - 16.5 1010.5 0.0
04/10:00am NNW 16 19 - - - - 10 Partly cloudy - 16.4 1010.5 0.0
04/09:30am NNW 13 17 - - - - 10 Partly cloudy - 16.2 1010.6 0.0
04/09:00am SSW 5 6 - - - - 10 Cloudy - 13.7 1010.6 18.0
04/08:30am SSE 5 7 - - - - 10 Mostly clear - 13.2 1010.5 18.0
04/08:00am SSE 4 5 - - - - 10 Partly cloudy - 13.1 1010.6 18.0
04/07:30am S 6 8 - - - - 10 Partly cloudy - 11.9 1010.2 18.0
04/07:00am S 5 7 - - - - 10 Partly cloudy - 12.8 1010.2 18.0
04/06:30am S 5 7 - - - - 10 Cloudy - 12.5 1010.0 18.0
04/06:00am SW 5 6 - - - - 10 Cloudy - 13.6 1010.3 18.0
04/05:44am SSW 5 7 - - - - 10 Mostly clear - 13.3 1010.0 18.0
04/05:30am SW 7 11 - - - - 10 Partly cloudy - 13.6 1009.9 18.0
04/05:00am NW 9 15 - - - - 10 Partly cloudy - 15.5 1009.6 18.0
04/04:30am WSW 7 13 - - - - 10 Cloudy - 14.0 1009.7 18.0
04/04:19am NNW 12 20 - - - - 10 Partly cloudy - 13.9 1009.9 18.0
04/04:00am SSE 6 7 - - - - 10 Partly cloudy - 13.1 1010.0 18.0
04/03:54am SSE 5 7 - - - - 10 Partly cloudy - 12.7 1010.0 18.0
04/03:53am SSE 5 7 - - - - 10 Partly cloudy - 12.7 1010.1 18.0
04/03:43am SE 3 4 - - - - 10 Mostly clear - 12.6 1010.1 18.0
04/03:30am SSE 4 5 - - - - 10 Mostly clear - 12.3 1010.3 18.0
04/03:20am SSE 5 6 - - - - 10 Partly cloudy - 12.2 1010.5 18.0
04/03:06am SSE 3 5 - - - - 10 Partly cloudy - 12.1 1010.5 18.0
04/03:00am SSE 3 4 - - - - 10 Cloudy - 12.1 1010.7 18.0
04/02:30am S 3 4 - - - - 10 Mostly clear - 12.1 1010.7 18.0
04/02:00am SW 4 6 - - - - 10 Mostly clear - 12.3 1010.9 18.0
04/01:30am W 3 4 - - - - 10 - - 12.4 1010.9 18.0
04/01:00am WNW 4 6 - - - - 10 - - 13.0 1011.0 18.0
04/12:30am WNW 2 4 - - - - 10 - - 12.4 1010.7 18.0
04/12:00am SW 5 5 - - - - 10 Cloudy - 12.3 1010.2 18.0
 
Date/Time
EST
Wind Sea
Height
m
Swell Vis
km
Cloud Weather Temp
°C
Press
MSL
hPa
Rain since
9am
mm
Dir  Spd
kts
Gust
kts
Height
m
Period
s
Dir
03/11:30pm SSW 3 5 - - - - 10 - - 13.4 1011.2 18.0
03/11:00pm WSW 7 7 - - - - 10 - - 13.9 1011.3 18.0
03/10:30pm WNW 9 11 - - - - 10 - - 15.4 1011.6 18.0
03/10:00pm NW 9 11 - - - - 10 - - 15.7 1011.0 18.0
03/09:30pm WNW 6 8 - - - - 10 - - 15.6 1011.0 18.0
03/09:00pm NNW 10 13 - - - - 10 Partly cloudy - 15.9 1011.2 18.0
03/08:46pm N 12 15 - - - - 10 Mostly clear - 16.2 1011.1 18.0
03/08:30pm N 12 16 - - - - 10 Partly cloudy - 16.3 1011.0 18.0
03/08:00pm NNE 12 15 - - - - 10 Partly cloudy - 16.7 1010.5 18.0

Other formats

Comma delimited format used in spreadsheet applications
http://www.bom.gov.au/fwo/IDT60701/IDT60701.95960.axf

JavaScript Object Notation format (JSON) in row-major order
http://www.bom.gov.au/fwo/IDT60701/IDT60701.95960.json

Data quality

Most of these data are generated automatically and are frequently updated. Quality checks on data are not normally performed. It is possible for incorrect values to appear. Refer to information at About Latest Weather Observations and please check the disclaimer before using these data.